createdAt,value
2019-02-21T00:01:19.167Z,7.60
2019-02-21T00:03:46.432Z,7.13
2019-02-21T00:06:13.706Z,7.80
2019-02-21T00:08:40.957Z,7.30
2019-02-21T00:11:08.230Z,8.97
2019-02-21T00:13:35.527Z,7.83
2019-02-21T00:16:03.094Z,7.30
2019-02-21T00:18:30.430Z,8.67
2019-02-21T00:20:57.707Z,7.40
2019-02-21T00:23:24.949Z,8.37
2019-02-21T00:25:52.217Z,8.10
2019-02-21T00:28:19.495Z,8.07
2019-02-21T00:30:46.774Z,7.73
2019-02-21T00:33:14.046Z,7.80
2019-02-21T00:35:41.294Z,7.80
2019-02-21T00:38:08.574Z,7.97
2019-02-21T00:40:35.846Z,8.70
2019-02-21T00:43:03.378Z,7.23
2019-02-21T00:45:30.719Z,7.87
2019-02-21T00:47:57.974Z,8.77
2019-02-21T00:50:25.326Z,7.93
2019-02-21T00:52:52.577Z,7.73
2019-02-21T00:55:19.854Z,8.17
2019-02-21T00:57:47.094Z,7.70
2019-02-21T01:00:14.603Z,7.57
2019-02-21T01:02:41.873Z,7.70
2019-02-21T01:05:09.381Z,7.13
2019-02-21T01:07:36.659Z,8.57
2019-02-21T01:10:04.682Z,8.77
2019-02-21T01:12:32.297Z,7.60
2019-02-21T01:14:59.550Z,7.30
2019-02-21T01:17:26.802Z,8.30
2019-02-21T01:19:54.074Z,7.30
2019-02-21T01:22:21.318Z,7.40
2019-02-21T01:24:48.598Z,9.20
2019-02-21T01:27:15.846Z,8.27
2019-02-21T01:29:43.114Z,8.13
2019-02-21T01:32:10.393Z,8.10
2019-02-21T01:34:37.666Z,9.30
2019-02-21T01:37:04.925Z,8.43
2019-02-21T01:39:32.205Z,8.47
2019-02-21T01:41:59.466Z,8.83
2019-02-21T01:44:26.766Z,8.40
2019-02-21T01:46:54.050Z,9.33
2019-02-21T01:49:21.300Z,9.47
2019-02-21T01:51:48.574Z,8.60
2019-02-21T01:54:15.823Z,9.40
2019-02-21T01:56:43.102Z,8.70
2019-02-21T01:59:10.346Z,9.00
2019-02-21T02:01:37.874Z,8.83
2019-02-21T02:04:05.141Z,9.20
2019-02-21T02:06:32.435Z,8.40
2019-02-21T02:08:59.677Z,9.07
2019-02-21T02:11:26.931Z,8.30
2019-02-21T02:13:54.209Z,8.97
2019-02-21T02:16:21.477Z,8.77
2019-02-21T02:18:48.730Z,9.83
2019-02-21T02:21:16.013Z,8.60
2019-02-21T02:23:43.268Z,11.07
2019-02-21T02:26:10.545Z,9.40
2019-02-21T02:28:37.827Z,9.87
2019-02-21T02:31:05.073Z,9.40
2019-02-21T02:33:32.414Z,9.40
2019-02-21T02:35:59.667Z,10.33
2019-02-21T02:38:27.213Z,10.13
2019-02-21T02:40:54.717Z,10.33
2019-02-21T02:43:21.994Z,11.10
2019-02-21T02:45:49.246Z,10.40
2019-02-21T02:48:16.497Z,10.30
2019-02-21T02:50:43.774Z,9.73
2019-02-21T02:53:11.031Z,10.80
2019-02-21T02:55:38.314Z,9.93
2019-02-21T02:58:06.675Z,9.73
2019-02-21T03:00:34.087Z,10.30
2019-02-21T03:03:01.334Z,10.00
2019-02-21T03:05:28.585Z,8.97
2019-02-21T03:07:55.868Z,11.37
2019-02-21T03:10:23.142Z,9.60
2019-02-21T03:12:50.414Z,10.20
2019-02-21T03:15:17.666Z,12.57
2019-02-21T03:17:44.943Z,9.93
2019-02-21T03:20:12.201Z,10.27
2019-02-21T03:22:39.545Z,10.67
2019-02-21T03:25:07.195Z,11.03
2019-02-21T03:27:34.448Z,11.47
2019-02-21T03:30:01.734Z,10.00
2019-02-21T03:32:28.984Z,10.00
2019-02-21T03:34:56.264Z,10.27
2019-02-21T03:37:23.514Z,10.60
2019-02-21T03:39:50.796Z,12.33
2019-02-21T03:42:18.047Z,11.43
2019-02-21T03:44:45.323Z,10.73
2019-02-21T03:47:12.601Z,11.30
2019-02-21T03:49:39.878Z,11.57
2019-02-21T03:52:07.127Z,10.47
2019-02-21T03:54:34.410Z,11.40
2019-02-21T03:57:01.690Z,11.87
2019-02-21T03:59:28.972Z,12.60
2019-02-21T04:02:04.915Z,11.60
2019-02-21T04:04:25.544Z,10.27
2019-02-21T04:06:52.862Z,12.73
2019-02-21T04:09:20.147Z,13.23
2019-02-21T04:11:47.662Z,11.80
2019-02-21T04:14:15.010Z,12.40
2019-02-21T04:16:42.255Z,12.73
2019-02-21T04:19:09.547Z,13.30
2019-02-21T04:21:36.806Z,12.53
2019-02-21T04:24:04.064Z,12.17
2019-02-21T04:26:31.370Z,13.63
2019-02-21T04:28:58.667Z,12.47
2019-02-21T04:31:25.940Z,11.60
2019-02-21T04:33:53.232Z,12.73
2019-02-21T04:36:23.159Z,12.20
2019-02-21T04:38:49.485Z,13.53
2019-02-21T04:41:16.740Z,12.23
2019-02-21T04:43:44.022Z,10.77
2019-02-21T04:46:11.281Z,13.33
2019-02-21T04:48:38.800Z,12.40
2019-02-21T04:51:06.083Z,13.13
2019-02-21T04:53:33.354Z,12.73
2019-02-21T04:56:00.682Z,12.00
2019-02-21T04:58:27.959Z,12.20
2019-02-21T05:00:55.216Z,13.73
2019-02-21T05:03:22.488Z,13.00
2019-02-21T05:05:49.741Z,13.57
2019-02-21T05:08:17.068Z,13.37
2019-02-21T05:10:44.318Z,12.73
2019-02-21T05:13:11.857Z,13.47
2019-02-21T05:15:39.102Z,12.27
2019-02-21T05:18:06.382Z,12.80
2019-02-21T05:20:33.647Z,13.47
2019-02-21T05:23:00.981Z,13.87
2019-02-21T05:25:28.272Z,13.83
2019-02-21T05:27:56.187Z,14.23
2019-02-21T05:30:25.215Z,13.40
2019-02-21T05:33:02.945Z,14.97
2019-02-21T05:35:34.753Z,12.73
2019-02-21T05:38:07.784Z,13.50
2019-02-21T05:40:36.886Z,15.90
2019-02-21T05:43:17.948Z,13.63
2019-02-21T05:45:47.038Z,14.37
2019-02-21T05:48:31.063Z,16.10
2019-02-21T05:51:02.722Z,15.90
2019-02-21T05:53:31.666Z,14.90
2019-02-21T05:56:00.606Z,16.03
2019-02-21T05:58:35.552Z,16.20
2019-02-21T06:01:13.638Z,15.83
2019-02-21T06:03:45.287Z,16.90
2019-02-21T06:06:19.991Z,16.70
2019-02-21T06:08:51.822Z,17.10
2019-02-21T06:11:20.808Z,16.23
2019-02-21T06:14:01.845Z,15.87
2019-02-21T06:16:32.770Z,14.50
2019-02-21T06:19:17.898Z,14.37
2019-02-21T06:21:52.499Z,14.10
2019-02-21T06:24:33.467Z,14.93
2019-02-21T06:27:02.667Z,13.63
2019-02-21T06:29:33.983Z,14.10
2019-02-21T06:32:00.571Z,15.57
2019-02-21T06:34:27.828Z,14.90
2019-02-21T06:36:55.102Z,14.30
2019-02-21T06:39:24.911Z,15.50
2019-02-21T06:41:59.069Z,15.80
2019-02-21T06:44:20.357Z,16.33
2019-02-21T06:46:47.885Z,14.90
2019-02-21T06:49:15.134Z,14.53
2019-02-21T06:51:42.410Z,16.37
2019-02-21T06:54:09.670Z,17.27
2019-02-21T06:56:37.194Z,16.23
2019-02-21T06:59:04.469Z,15.53
2019-02-21T07:01:31.718Z,16.43
2019-02-21T07:03:59.006Z,16.37
2019-02-21T07:06:31.983Z,16.77
2019-02-21T07:08:55.230Z,18.63
2019-02-21T07:11:25.133Z,19.40
2019-02-21T07:13:51.836Z,19.40
2019-02-21T07:16:19.122Z,15.07
2019-02-21T07:18:46.375Z,17.77
2019-02-21T07:21:13.654Z,16.77
2019-02-21T07:23:43.692Z,18.80
2019-02-21T07:26:10.338Z,17.93
2019-02-21T07:28:37.606Z,17.53
2019-02-21T07:31:04.895Z,18.47
2019-02-21T07:33:32.143Z,19.07
2019-02-21T07:35:59.428Z,19.13
2019-02-21T07:38:26.680Z,18.50
2019-02-21T07:40:53.996Z,20.23
2019-02-21T07:43:21.294Z,19.03
2019-02-21T07:45:48.911Z,19.30
2019-02-21T07:48:16.254Z,18.87
2019-02-21T07:50:43.782Z,19.20
2019-02-21T07:53:11.269Z,20.27
2019-02-21T07:55:38.541Z,18.70
2019-02-21T07:58:05.881Z,18.87
2019-02-21T08:00:33.201Z,19.17
2019-02-21T08:03:00.490Z,18.33
2019-02-21T08:05:27.764Z,18.53
2019-02-21T08:07:55.106Z,19.03
2019-02-21T08:10:32.763Z,19.33
2019-02-21T08:12:53.477Z,19.77
2019-02-21T08:15:20.589Z,19.67
2019-02-21T08:17:47.846Z,19.30
2019-02-21T08:20:15.099Z,21.70
2019-02-21T08:22:42.378Z,19.73
2019-02-21T08:25:10.206Z,21.30
2019-02-21T08:27:37.485Z,20.40
2019-02-21T08:30:06.287Z,21.70
2019-02-21T08:32:35.131Z,21.40
2019-02-21T08:35:02.619Z,20.27
2019-02-21T08:37:29.894Z,18.93
2019-02-21T08:39:57.173Z,17.20
2019-02-21T08:42:24.422Z,19.47
2019-02-21T08:44:51.707Z,19.03
2019-02-21T08:47:18.960Z,19.70
2019-02-21T08:49:46.313Z,19.57
2019-02-21T08:52:13.561Z,21.50
2019-02-21T08:54:40.842Z,20.60
2019-02-21T08:57:08.103Z,20.47
2019-02-21T08:59:35.382Z,22.30
2019-02-21T09:02:04.997Z,21.13
2019-02-21T09:04:31.895Z,20.23
2019-02-21T09:06:59.389Z,20.40
2019-02-21T09:09:26.734Z,20.50
2019-02-21T09:11:54.037Z,20.50
2019-02-21T09:14:21.381Z,19.67
2019-02-21T09:16:48.979Z,20.70
2019-02-21T09:19:16.474Z,19.47
2019-02-21T09:21:43.991Z,19.73
2019-02-21T09:24:13.754Z,18.50
2019-02-21T09:26:40.235Z,20.80
2019-02-21T09:29:07.494Z,20.50
2019-02-21T09:31:34.778Z,19.37
2019-02-21T09:34:02.038Z,21.47
2019-02-21T09:36:29.314Z,19.97
2019-02-21T09:38:56.815Z,19.33
2019-02-21T09:41:24.097Z,19.57
2019-02-21T09:43:51.349Z,21.33
2019-02-21T09:46:18.635Z,20.17
2019-02-21T09:48:45.881Z,20.30
2019-02-21T09:51:13.434Z,19.40
2019-02-21T09:53:40.686Z,19.90
2019-02-21T09:56:07.939Z,21.00
2019-02-21T09:58:35.222Z,20.47
2019-02-21T10:01:02.548Z,21.07
2019-02-21T10:03:30.098Z,19.03
2019-02-21T10:05:57.346Z,19.20
2019-02-21T10:08:24.628Z,20.23
2019-02-21T10:10:51.906Z,20.13
2019-02-21T10:13:19.185Z,18.90
2019-02-21T10:15:47.149Z,20.20
2019-02-21T10:18:14.463Z,19.70
2019-02-21T10:20:41.710Z,18.40
2019-02-21T10:23:08.998Z,20.23
2019-02-21T10:25:36.522Z,19.30
2019-02-21T10:28:04.058Z,16.93
2019-02-21T10:30:31.386Z,17.47
2019-02-21T10:32:58.743Z,18.27
2019-02-21T10:35:26.001Z,18.00
2019-02-21T10:37:53.282Z,17.60
2019-02-21T10:40:20.572Z,18.30
2019-02-21T10:42:48.172Z,18.53
2019-02-21T10:45:16.992Z,17.80
2019-02-21T10:47:44.338Z,17.67
2019-02-21T10:50:14.136Z,18.47
2019-02-21T10:52:41.733Z,18.63
2019-02-21T10:55:09.459Z,17.33
2019-02-21T10:57:36.960Z,16.57
2019-02-21T11:00:05.946Z,16.73
2019-02-21T11:02:33.466Z,17.50
2019-02-21T11:05:00.798Z,17.80
2019-02-21T11:07:28.075Z,18.77
2019-02-21T11:09:55.354Z,18.20
2019-02-21T11:12:22.614Z,17.13
2019-02-21T11:14:49.858Z,17.43
2019-02-21T11:17:17.377Z,17.47
2019-02-21T11:19:44.878Z,18.40
2019-02-21T11:22:12.160Z,16.80
2019-02-21T11:24:39.742Z,17.53
2019-02-21T11:27:07.018Z,17.83
2019-02-21T11:29:34.265Z,15.67
2019-02-21T11:32:01.813Z,15.63
2019-02-21T11:34:29.070Z,15.47
2019-02-21T11:36:56.394Z,16.00
2019-02-21T11:39:23.923Z,18.10
2019-02-21T11:41:51.497Z,15.60
2019-02-21T11:44:18.817Z,16.10
2019-02-21T11:46:46.058Z,17.80
2019-02-21T11:49:13.342Z,16.50
2019-02-21T11:51:40.594Z,17.30
2019-02-21T11:54:07.883Z,18.00
2019-02-21T11:56:35.401Z,16.87
2019-02-21T11:59:02.657Z,18.73
2019-02-21T12:01:30.184Z,20.80
2019-02-21T12:03:57.422Z,20.33
2019-02-21T12:06:24.987Z,22.40
2019-02-21T12:08:52.257Z,20.47
2019-02-21T12:11:19.798Z,22.33
2019-02-21T12:13:47.481Z,22.47
2019-02-21T12:16:14.741Z,23.67
2019-02-21T12:18:42.023Z,24.73
2019-02-21T12:21:09.267Z,24.23
2019-02-21T12:23:36.545Z,24.50
2019-02-21T12:26:03.798Z,25.43
2019-02-21T12:28:31.331Z,23.53
2019-02-21T12:30:58.869Z,23.67
2019-02-21T12:33:26.155Z,23.60
2019-02-21T12:35:53.484Z,24.70
2019-02-21T12:38:20.737Z,23.00
2019-02-21T12:40:48.022Z,24.73
2019-02-21T12:43:16.158Z,23.80
2019-02-21T12:45:43.428Z,22.47
2019-02-21T12:48:10.702Z,22.87
2019-02-21T12:50:44.297Z,23.70
2019-02-21T12:53:07.211Z,22.37
2019-02-21T12:55:34.709Z,22.60
2019-02-21T12:58:01.985Z,23.70
2019-02-21T13:00:29.295Z,21.30
2019-02-21T13:02:56.887Z,21.70
2019-02-21T13:05:24.144Z,22.97
2019-02-21T13:07:51.414Z,23.50
2019-02-21T13:10:20.212Z,22.53
2019-02-21T13:12:47.494Z,21.30
2019-02-21T13:15:15.273Z,21.40
2019-02-21T13:17:42.549Z,19.23
2019-02-21T13:20:10.774Z,21.90
2019-02-21T13:22:38.077Z,21.10
2019-02-21T13:25:06.727Z,20.53
2019-02-21T13:27:33.977Z,19.47
2019-02-21T13:30:01.306Z,20.57
2019-02-21T13:32:28.573Z,19.90
2019-02-21T13:34:55.825Z,18.90
2019-02-21T13:37:28.915Z,18.83
2019-02-21T13:39:52.409Z,17.00
2019-02-21T13:42:19.693Z,19.80
2019-02-21T13:44:47.190Z,19.80
2019-02-21T13:47:14.519Z,20.37
2019-02-21T13:49:41.772Z,18.87
2019-02-21T13:52:09.066Z,20.20
2019-02-21T13:54:36.313Z,18.33
2019-02-21T13:57:03.597Z,18.83
2019-02-21T13:59:30.853Z,20.07
2019-02-21T14:01:58.374Z,18.40
2019-02-21T14:04:25.666Z,19.20
2019-02-21T14:06:52.929Z,19.60
2019-02-21T14:09:20.169Z,18.27
2019-02-21T14:11:47.706Z,17.40
2019-02-21T14:14:14.959Z,19.30
2019-02-21T14:16:46.749Z,18.53
2019-02-21T14:19:11.449Z,19.00
2019-02-21T14:21:38.739Z,19.27
2019-02-21T14:24:05.981Z,18.23
2019-02-21T14:26:33.259Z,18.77
2019-02-21T14:29:00.610Z,18.43
2019-02-21T14:31:28.121Z,19.67
2019-02-21T14:33:55.403Z,18.57
2019-02-21T14:36:22.685Z,18.83
2019-02-21T14:38:50.018Z,18.40
2019-02-21T14:41:18.155Z,18.60
2019-02-21T14:43:45.406Z,17.53
2019-02-21T14:46:12.694Z,18.47
2019-02-21T14:48:40.019Z,18.60
2019-02-21T14:51:07.559Z,18.83
2019-02-21T14:53:34.810Z,17.80
2019-02-21T14:56:02.178Z,19.43
2019-02-21T14:58:29.412Z,18.90
2019-02-21T15:00:56.701Z,17.60
2019-02-21T15:03:23.959Z,19.37
2019-02-21T15:05:51.248Z,19.50
2019-02-21T15:08:21.916Z,19.03
2019-02-21T15:10:48.670Z,18.40
2019-02-21T15:13:15.917Z,19.80
2019-02-21T15:15:43.197Z,20.00
2019-02-21T15:18:11.359Z,18.20
2019-02-21T15:20:38.782Z,18.10
2019-02-21T15:23:06.039Z,17.90
2019-02-21T15:25:33.573Z,18.07
2019-02-21T15:28:01.116Z,18.50
2019-02-21T15:30:28.632Z,19.50
2019-02-21T15:32:55.877Z,18.27
2019-02-21T15:35:23.420Z,20.00
2019-02-21T15:37:50.670Z,18.50
2019-02-21T15:40:17.924Z,18.30
2019-02-21T15:42:45.195Z,19.57
2019-02-21T15:45:22.867Z,18.97
2019-02-21T15:47:45.984Z,19.93
2019-02-21T15:50:13.837Z,18.43
2019-02-21T15:52:41.558Z,19.00
2019-02-21T15:55:12.653Z,18.90
2019-02-21T15:57:39.143Z,18.73
2019-02-21T16:00:10.467Z,19.30
2019-02-21T16:02:37.788Z,18.70
2019-02-21T16:05:05.493Z,18.57
2019-02-21T16:07:32.784Z,18.77
2019-02-21T16:10:00.029Z,19.37
2019-02-21T16:12:27.702Z,18.73
2019-02-21T16:14:55.339Z,20.33
2019-02-21T16:17:22.858Z,19.57
2019-02-21T16:19:50.159Z,19.27
2019-02-21T16:22:17.466Z,20.10
2019-02-21T16:24:44.998Z,19.40
2019-02-21T16:27:12.253Z,17.93
2019-02-21T16:29:39.527Z,18.50
2019-02-21T16:32:06.854Z,19.13
2019-02-21T16:34:34.143Z,19.93
2019-02-21T16:37:02.622Z,19.80
2019-02-21T16:39:30.007Z,18.57
2019-02-21T16:41:57.282Z,21.70
2019-02-21T16:44:24.583Z,18.87
2019-02-21T16:46:52.122Z,20.37
2019-02-21T16:49:19.434Z,18.90
2019-02-21T16:51:46.714Z,19.10
2019-02-21T16:54:13.989Z,18.67
2019-02-21T16:56:41.269Z,17.67
2019-02-21T16:59:08.530Z,19.57
2019-02-21T17:01:35.806Z,18.63
2019-02-21T17:04:03.336Z,18.00
2019-02-21T17:06:30.579Z,17.27
2019-02-21T17:08:57.879Z,17.67
2019-02-21T17:11:25.131Z,18.50
2019-02-21T17:13:52.463Z,16.70
2019-02-21T17:16:19.729Z,18.27
2019-02-21T17:18:47.261Z,17.07
2019-02-21T17:21:14.547Z,17.43
2019-02-21T17:23:41.830Z,16.80
2019-02-21T17:26:09.084Z,16.87
2019-02-21T17:28:36.436Z,16.10
2019-02-21T17:31:03.781Z,18.17
2019-02-21T17:33:31.037Z,16.37
2019-02-21T17:35:58.324Z,17.30
2019-02-21T17:38:25.818Z,15.83
2019-02-21T17:40:53.098Z,16.60
2019-02-21T17:43:20.594Z,17.37
2019-02-21T17:45:48.129Z,15.90
2019-02-21T17:48:15.391Z,16.90
2019-02-21T17:50:42.639Z,16.93
2019-02-21T17:53:09.917Z,15.40
2019-02-21T17:55:37.170Z,17.10
2019-02-21T17:58:04.514Z,16.17
2019-02-21T18:00:36.240Z,16.53
2019-02-21T18:03:03.534Z,16.77
2019-02-21T18:05:30.845Z,16.20
2019-02-21T18:07:58.140Z,17.23
2019-02-21T18:10:25.425Z,17.57
2019-02-21T18:12:52.918Z,16.93
2019-02-21T18:15:20.193Z,15.20
2019-02-21T18:17:47.450Z,15.73
2019-02-21T18:20:15.522Z,14.50
2019-02-21T18:22:42.880Z,16.90
2019-02-21T18:25:21.125Z,15.47
2019-02-21T18:27:48.418Z,15.03
2019-02-21T18:30:16.438Z,15.43
2019-02-21T18:32:43.715Z,17.00
2019-02-21T18:35:11.182Z,15.67
2019-02-21T18:37:47.040Z,16.33
2019-02-21T18:40:16.953Z,15.47
2019-02-21T18:42:39.493Z,15.60
2019-02-21T18:45:07.710Z,17.33
2019-02-21T18:47:34.998Z,16.20
2019-02-21T18:50:02.398Z,14.30
2019-02-21T18:52:29.687Z,16.43
2019-02-21T18:54:57.270Z,14.83
2019-02-21T18:57:24.545Z,15.53
2019-02-21T18:59:52.138Z,17.53
2019-02-21T19:02:19.937Z,16.93
2019-02-21T19:04:47.703Z,16.60
2019-02-21T19:07:15.303Z,17.10
2019-02-21T19:09:42.554Z,16.53
2019-02-21T19:12:10.226Z,17.70
2019-02-21T19:14:37.562Z,17.77
2019-02-21T19:17:05.154Z,16.87
2019-02-21T19:19:32.438Z,16.20
2019-02-21T19:21:59.695Z,17.83
2019-02-21T19:24:27.055Z,17.87
2019-02-21T19:26:54.559Z,16.77
2019-02-21T19:29:22.095Z,17.13
2019-02-21T19:31:49.634Z,19.27
2019-02-21T19:34:16.975Z,17.53
2019-02-21T19:36:44.585Z,17.20
2019-02-21T19:39:11.834Z,17.50
2019-02-21T19:41:39.406Z,18.10
2019-02-21T19:44:09.192Z,18.20
2019-02-21T19:46:35.730Z,16.70
2019-02-21T19:49:02.982Z,18.03
2019-02-21T19:51:30.517Z,19.10
2019-02-21T19:53:57.802Z,19.60
2019-02-21T19:56:25.163Z,19.80
2019-02-21T19:58:52.494Z,18.20
2019-02-21T20:01:19.779Z,20.93
2019-02-21T20:03:47.105Z,19.13
2019-02-21T20:06:14.391Z,18.13
2019-02-21T20:08:41.682Z,19.60
2019-02-21T20:11:09.498Z,18.53
2019-02-21T20:13:36.754Z,19.83
2019-02-21T20:16:04.110Z,18.60
2019-02-21T20:18:32.307Z,19.17
2019-02-21T20:20:59.917Z,19.27
2019-02-21T20:23:27.199Z,19.83
2019-02-21T20:25:54.738Z,20.80
2019-02-21T20:28:22.094Z,20.87
2019-02-21T20:30:49.432Z,19.90
2019-02-21T20:33:16.757Z,18.33
2019-02-21T20:35:44.030Z,21.47
2019-02-21T20:38:11.406Z,20.97
2019-02-21T20:40:38.917Z,21.40
2019-02-21T20:43:06.269Z,21.90
2019-02-21T20:45:33.629Z,19.90
2019-02-21T20:48:01.071Z,21.50
2019-02-21T20:50:28.348Z,21.63
2019-02-21T20:52:55.631Z,21.10
2019-02-21T20:55:22.908Z,21.37
2019-02-21T20:57:50.417Z,20.93
2019-02-21T21:00:18.471Z,23.23
2019-02-21T21:02:45.839Z,23.40
2019-02-21T21:05:13.439Z,23.57
2019-02-21T21:07:40.685Z,24.87
2019-02-21T21:10:10.786Z,20.60
2019-02-21T21:12:38.317Z,22.37
2019-02-21T21:15:09.334Z,23.37
2019-02-21T21:17:35.814Z,24.07
2019-02-21T21:20:03.325Z,23.47
2019-02-21T21:22:30.573Z,19.97
2019-02-21T21:24:57.858Z,20.37
2019-02-21T21:27:25.371Z,19.27
2019-02-21T21:29:52.623Z,22.40
2019-02-21T21:32:20.326Z,21.03
2019-02-21T21:34:47.679Z,19.57
2019-02-21T21:37:15.222Z,20.30
2019-02-21T21:39:42.475Z,21.23
2019-02-21T21:42:09.762Z,22.30
2019-02-21T21:44:37.502Z,20.47
2019-02-21T21:47:04.773Z,22.33
2019-02-21T21:49:32.026Z,21.47
2019-02-21T21:51:59.322Z,20.73
2019-02-21T21:54:26.825Z,25.13
2019-02-21T21:56:54.492Z,23.43
2019-02-21T21:59:21.770Z,19.50
2019-02-21T22:01:49.017Z,24.07
2019-02-21T22:04:16.316Z,22.10
2019-02-21T22:06:43.793Z,29.90
2019-02-21T22:09:11.291Z,21.80
2019-02-21T22:11:38.566Z,27.20
2019-02-21T22:14:05.822Z,26.53
2019-02-21T22:16:33.104Z,25.50
2019-02-21T22:19:00.362Z,25.03
2019-02-21T22:21:27.890Z,31.30
2019-02-21T22:23:56.809Z,31.47
2019-02-21T22:26:24.138Z,32.97
2019-02-21T22:28:51.417Z,34.83
2019-02-21T22:31:18.953Z,33.37
2019-02-21T22:33:46.198Z,34.87
2019-02-21T22:36:13.730Z,34.43
2019-02-21T22:38:41.051Z,35.93
2019-02-21T22:41:08.333Z,34.40
2019-02-21T22:43:35.586Z,34.37
2019-02-21T22:46:02.882Z,33.30
2019-02-21T22:48:30.135Z,34.53
2019-02-21T22:50:57.387Z,33.53
2019-02-21T22:53:24.666Z,35.70
2019-02-21T22:55:52.176Z,35.87
2019-02-21T22:58:19.457Z,31.70
2019-02-21T23:00:55.962Z,37.10
2019-02-21T23:03:25.038Z,36.50
2019-02-21T23:06:06.150Z,37.10
2019-02-21T23:08:41.257Z,35.70
2019-02-21T23:11:08.506Z,35.20
2019-02-21T23:13:35.783Z,35.10
2019-02-21T23:16:03.289Z,34.63
2019-02-21T23:18:30.571Z,37.57
2019-02-21T23:20:57.834Z,36.97
2019-02-21T23:23:25.547Z,36.23
2019-02-21T23:25:52.802Z,36.60
2019-02-21T23:28:20.054Z,37.50
2019-02-21T23:30:47.341Z,35.20
2019-02-21T23:33:14.691Z,36.20
2019-02-21T23:35:41.974Z,36.03
2019-02-21T23:38:09.519Z,39.37
2019-02-21T23:40:37.201Z,41.63
2019-02-21T23:43:04.491Z,38.10
2019-02-21T23:45:31.779Z,38.20
2019-02-21T23:47:59.026Z,36.57
2019-02-21T23:50:26.308Z,39.80
2019-02-21T23:52:53.601Z,39.70
2019-02-21T23:55:20.894Z,38.53
2019-02-21T23:57:48.147Z,41.43
